createdAt,value
2019-02-27T00:02:02.555Z,34.60
2019-02-27T00:04:35.553Z,34.20
2019-02-27T00:07:07.597Z,33.80
2019-02-27T00:09:39.481Z,38.20
2019-02-27T00:12:11.100Z,36.40
2019-02-27T00:14:42.969Z,36.60
2019-02-27T00:17:15.142Z,39.80
2019-02-27T00:19:47.956Z,36.40
2019-02-27T00:22:20.246Z,37.80
2019-02-27T00:24:52.438Z,37.80
2019-02-27T00:27:23.826Z,37.60
2019-02-27T00:29:55.626Z,36.40
2019-02-27T00:32:27.382Z,38.00
2019-02-27T00:34:58.859Z,34.20
2019-02-27T00:37:30.427Z,40.00
2019-02-27T00:40:05.387Z,40.00
2019-02-27T00:42:35.272Z,40.20
2019-02-27T00:45:07.695Z,37.80
2019-02-27T00:47:39.605Z,37.00
2019-02-27T00:50:12.386Z,40.00
2019-02-27T00:52:45.401Z,37.60
2019-02-27T00:55:16.775Z,40.00
2019-02-27T00:57:48.531Z,40.00
2019-02-27T01:00:20.597Z,38.60
2019-02-27T01:02:53.452Z,40.00
2019-02-27T01:05:25.458Z,40.00
2019-02-27T01:07:59.260Z,46.60
2019-02-27T01:10:31.093Z,44.20
2019-02-27T01:13:02.907Z,42.20
2019-02-27T01:15:34.858Z,37.80
2019-02-27T01:18:06.609Z,37.20
2019-02-27T01:20:38.320Z,37.80
2019-02-27T01:23:11.073Z,38.20
2019-02-27T01:25:43.604Z,37.60
2019-02-27T01:28:15.324Z,37.80
2019-02-27T01:30:47.055Z,41.60
2019-02-27T01:33:19.324Z,40.00
2019-02-27T01:35:52.273Z,41.40
2019-02-27T01:38:24.019Z,44.20
2019-02-27T01:40:58.723Z,44.20
2019-02-27T01:43:30.463Z,39.00
2019-02-27T01:46:02.556Z,41.40
2019-02-27T01:48:34.656Z,42.80
2019-02-27T01:51:06.531Z,43.20
2019-02-27T01:53:40.496Z,41.00
2019-02-27T01:56:13.213Z,44.20
2019-02-27T01:58:44.727Z,40.80
2019-02-27T02:01:16.687Z,37.00
2019-02-27T02:03:49.045Z,37.20
2019-02-27T02:06:20.691Z,39.40
2019-02-27T02:09:09.914Z,42.20
2019-02-27T02:11:43.656Z,44.00
2019-02-27T02:14:48.514Z,39.40
2019-02-27T02:17:47.043Z,40.80
2019-02-27T02:20:38.691Z,42.00
2019-02-27T02:23:49.710Z,39.20
2019-02-27T02:27:07.996Z,41.20
2019-02-27T02:30:34.787Z,41.00
2019-02-27T02:33:43.639Z,43.00
2019-02-27T02:36:38.358Z,41.00
2019-02-27T02:39:38.408Z,43.00
2019-02-27T02:42:41.938Z,43.00
2019-02-27T02:45:32.729Z,42.60
2019-02-27T02:48:32.340Z,45.20
2019-02-27T02:51:47.878Z,45.60
2019-02-27T02:55:14.749Z,40.00
2019-02-27T02:58:32.778Z,45.20
2019-02-27T03:01:15.236Z,40.20
2019-02-27T03:04:05.668Z,40.60
2019-02-27T03:07:13.517Z,41.60
2019-02-27T03:10:18.116Z,40.80
2019-02-27T03:13:33.389Z,40.60
2019-02-27T03:16:42.373Z,37.80
2019-02-27T03:19:43.148Z,38.20
2019-02-27T03:23:04.701Z,38.40
2019-02-27T03:25:58.055Z,35.60
2019-02-27T03:29:16.068Z,36.60
2019-02-27T03:32:05.233Z,43.00
2019-02-27T03:35:09.126Z,41.40
2019-02-27T03:38:05.762Z,35.60
2019-02-27T03:41:22.484Z,38.60
2019-02-27T03:44:20.707Z,36.60
2019-02-27T03:47:24.752Z,35.00
2019-02-27T03:50:25.697Z,35.60
2019-02-27T03:53:18.224Z,31.60
2019-02-27T03:56:12.586Z,37.60
2019-02-27T03:59:06.323Z,37.80
2019-02-27T04:02:11.060Z,34.20
2019-02-27T04:05:21.264Z,37.40
2019-02-27T04:08:29.338Z,37.20
2019-02-27T04:11:05.543Z,37.40
2019-02-27T04:13:34.243Z,37.00
2019-02-27T04:16:05.685Z,35.20
2019-02-27T04:18:34.747Z,37.00
2019-02-27T04:21:06.869Z,37.00
2019-02-27T04:23:38.571Z,33.80
2019-02-27T04:26:10.292Z,35.20
2019-02-27T04:28:41.894Z,34.20
2019-02-27T04:31:13.766Z,31.20
2019-02-27T04:33:45.607Z,30.40
2019-02-27T04:36:18.706Z,30.80
2019-02-27T04:38:50.281Z,34.40
2019-02-27T04:41:22.206Z,34.00
2019-02-27T04:43:53.862Z,34.00
2019-02-27T04:46:25.416Z,34.00
2019-02-27T04:48:57.187Z,33.20
2019-02-27T04:51:28.807Z,31.80
2019-02-27T04:54:00.382Z,34.00
2019-02-27T04:56:31.858Z,30.20
2019-02-27T04:59:03.591Z,34.80
2019-02-27T05:01:36.664Z,30.20
2019-02-27T05:04:08.547Z,34.00
2019-02-27T05:06:40.236Z,30.80
2019-02-27T05:09:13.088Z,35.80
2019-02-27T05:11:47.566Z,32.00
2019-02-27T05:14:18.144Z,32.40
2019-02-27T05:16:49.715Z,36.20
2019-02-27T05:19:22.449Z,33.60
2019-02-27T05:21:54.023Z,35.40
2019-02-27T05:24:27.501Z,32.60
2019-02-27T05:27:00.833Z,35.60
2019-02-27T05:29:32.525Z,30.80
2019-02-27T05:32:04.047Z,35.00
2019-02-27T05:34:35.719Z,35.80
2019-02-27T05:37:07.200Z,32.20
2019-02-27T05:39:38.832Z,40.40
2019-02-27T05:42:10.499Z,41.80
2019-02-27T05:44:42.464Z,42.60
2019-02-27T05:47:14.179Z,36.40
2019-02-27T05:49:45.583Z,37.00
2019-02-27T05:52:17.030Z,34.00
2019-02-27T05:54:48.804Z,35.00
2019-02-27T05:57:23.258Z,37.20
2019-02-27T05:59:54.642Z,37.60
2019-02-27T06:02:26.393Z,34.60
2019-02-27T06:05:00.578Z,36.20
2019-02-27T06:07:32.274Z,36.40
2019-02-27T06:10:04.029Z,36.20
2019-02-27T06:12:39.992Z,38.20
2019-02-27T06:15:11.135Z,39.20
2019-02-27T06:17:43.760Z,36.20
2019-02-27T06:20:17.140Z,40.20
2019-02-27T06:22:49.015Z,37.00
2019-02-27T06:25:23.377Z,40.20
2019-02-27T06:27:54.077Z,36.20
2019-02-27T06:30:30.324Z,35.60
2019-02-27T06:32:59.296Z,36.80
2019-02-27T06:35:34.174Z,33.20
2019-02-27T06:38:04.836Z,37.20
2019-02-27T06:40:36.501Z,36.00
2019-02-27T06:43:08.639Z,37.00
2019-02-27T06:45:45.190Z,36.20
2019-02-27T06:48:14.626Z,34.60
2019-02-27T06:50:46.272Z,36.00
2019-02-27T06:53:19.901Z,37.00
2019-02-27T06:55:52.114Z,36.20
2019-02-27T06:58:24.287Z,34.60
2019-02-27T07:00:56.300Z,33.60
2019-02-27T07:03:30.955Z,35.60
2019-02-27T07:06:03.176Z,31.20
2019-02-27T07:08:38.183Z,34.20
2019-02-27T07:11:11.369Z,34.40
2019-02-27T07:13:44.501Z,34.80
2019-02-27T07:16:17.030Z,33.40
2019-02-27T07:18:48.946Z,35.20
2019-02-27T07:21:21.869Z,37.40
2019-02-27T07:23:57.727Z,42.20
2019-02-27T07:26:27.944Z,39.40
2019-02-27T07:29:00.068Z,36.60
2019-02-27T07:31:35.207Z,33.60
2019-02-27T07:34:06.889Z,33.00
2019-02-27T07:36:50.685Z,35.20
2019-02-27T07:39:23.850Z,35.40
2019-02-27T07:41:56.372Z,35.00
2019-02-27T07:44:29.043Z,35.00
2019-02-27T07:47:02.799Z,35.00
2019-02-27T07:49:36.167Z,36.40
2019-02-27T07:52:08.468Z,35.00
2019-02-27T07:54:45.042Z,35.00
2019-02-27T07:57:17.620Z,38.40
2019-02-27T07:59:54.895Z,34.60
2019-02-27T08:02:27.548Z,35.20
2019-02-27T08:05:01.183Z,34.00
2019-02-27T08:07:43.294Z,29.80
2019-02-27T08:10:19.089Z,35.20
2019-02-27T08:12:55.572Z,36.20
2019-02-27T08:15:27.475Z,35.20
2019-02-27T08:18:04.698Z,35.20
2019-02-27T08:20:37.192Z,35.20
2019-02-27T08:23:09.891Z,31.20
2019-02-27T08:25:42.539Z,34.00
2019-02-27T08:28:15.017Z,34.40
2019-02-27T08:30:48.501Z,35.20
2019-02-27T08:33:21.330Z,34.20
2019-02-27T08:35:55.229Z,35.00
2019-02-27T08:38:29.214Z,35.80
2019-02-27T08:41:01.844Z,32.20
2019-02-27T08:43:34.486Z,35.20
2019-02-27T08:46:06.817Z,38.40
2019-02-27T08:48:39.466Z,32.20
2019-02-27T08:51:12.032Z,33.80
2019-02-27T08:53:45.063Z,36.00
2019-02-27T08:56:17.422Z,34.20
2019-02-27T08:58:50.374Z,34.60
2019-02-27T09:01:22.851Z,35.40
2019-02-27T09:03:55.293Z,35.00
2019-02-27T09:06:28.262Z,34.00
2019-02-27T09:09:01.815Z,31.40
2019-02-27T09:11:37.196Z,37.00
2019-02-27T09:14:12.328Z,35.00
2019-02-27T09:16:44.986Z,37.20
2019-02-27T09:19:17.951Z,37.60
2019-02-27T09:21:51.073Z,35.00
2019-02-27T09:24:24.423Z,37.20
2019-02-27T09:26:58.107Z,34.00
2019-02-27T09:29:30.770Z,35.00
2019-02-27T09:32:03.704Z,37.20
2019-02-27T09:34:37.865Z,37.80
2019-02-27T09:37:16.361Z,32.00
2019-02-27T09:39:48.019Z,35.80
2019-02-27T09:42:20.942Z,34.00
2019-02-27T09:44:53.888Z,36.20
2019-02-27T09:47:28.632Z,35.00
2019-02-27T09:50:03.627Z,34.40
2019-02-27T09:52:37.713Z,34.00
2019-02-27T09:55:12.554Z,33.80
2019-02-27T09:57:48.012Z,34.20
2019-02-27T10:00:38.422Z,34.20
2019-02-27T10:03:13.634Z,35.00
2019-02-27T10:05:46.261Z,32.20
2019-02-27T10:08:19.109Z,35.00
2019-02-27T10:10:53.871Z,33.20
2019-02-27T10:13:32.000Z,31.60
2019-02-27T10:16:05.440Z,34.40
2019-02-27T10:18:38.533Z,34.20
2019-02-27T10:21:22.273Z,33.20
2019-02-27T10:23:58.055Z,32.20
2019-02-27T10:26:35.678Z,30.00
2019-02-27T10:29:10.888Z,33.60
2019-02-27T10:31:44.735Z,30.00
2019-02-27T10:34:20.852Z,32.40
2019-02-27T10:37:05.624Z,32.60
2019-02-27T10:39:41.626Z,33.60
2019-02-27T10:42:16.805Z,32.40
2019-02-27T10:44:49.521Z,33.20
2019-02-27T10:47:22.866Z,32.40
2019-02-27T10:50:01.889Z,29.20
2019-02-27T10:52:34.497Z,29.20
2019-02-27T10:55:11.278Z,30.80
2019-02-27T10:57:43.417Z,29.60
2019-02-27T11:00:20.111Z,31.00
2019-02-27T11:02:54.579Z,30.00
2019-02-27T11:05:34.250Z,28.80
2019-02-27T11:08:15.893Z,28.60
2019-02-27T11:10:49.130Z,28.40
2019-02-27T11:13:25.235Z,29.40
2019-02-27T11:15:59.217Z,28.80
2019-02-27T11:18:32.190Z,28.40
2019-02-27T11:21:05.712Z,28.80
2019-02-27T11:23:41.116Z,29.20
2019-02-27T11:26:14.023Z,28.80
2019-02-27T11:28:47.708Z,29.00
2019-02-27T11:31:22.072Z,28.40
2019-02-27T11:33:55.849Z,28.80
2019-02-27T11:36:30.955Z,28.20
2019-02-27T11:39:06.813Z,15.60
2019-02-27T11:41:42.156Z,25.80
2019-02-27T11:44:15.727Z,25.20
2019-02-27T11:46:58.425Z,22.00
2019-02-27T11:49:23.823Z,19.80
2019-02-27T11:51:57.086Z,16.60
2019-02-27T11:54:30.629Z,20.40
2019-02-27T11:57:02.573Z,20.00
2019-02-27T11:59:36.639Z,18.20
2019-02-27T12:02:09.047Z,16.80
2019-02-27T12:04:41.359Z,17.00
2019-02-27T12:07:17.243Z,15.00
2019-02-27T12:09:47.916Z,15.00
2019-02-27T12:12:22.507Z,14.00
2019-02-27T12:14:53.167Z,16.60
2019-02-27T12:17:25.682Z,17.80
2019-02-27T12:19:57.250Z,16.20
2019-02-27T12:22:32.955Z,15.20
2019-02-27T12:25:04.354Z,14.60
2019-02-27T12:27:48.273Z,19.40
2019-02-27T12:30:12.582Z,18.00
2019-02-27T12:32:44.108Z,21.80
2019-02-27T12:35:21.351Z,18.20
2019-02-27T12:37:53.123Z,21.00
2019-02-27T12:40:26.118Z,16.00
2019-02-27T12:42:57.980Z,17.00
2019-02-27T12:45:29.885Z,18.80
2019-02-27T12:48:01.625Z,19.60
2019-02-27T12:50:33.926Z,22.00
2019-02-27T12:53:08.915Z,25.00
2019-02-27T12:55:43.006Z,26.40
2019-02-27T12:58:17.067Z,23.60
2019-02-27T13:00:48.602Z,27.40
2019-02-27T13:03:21.117Z,24.80
2019-02-27T13:05:52.519Z,25.60
2019-02-27T13:08:24.064Z,23.00
2019-02-27T13:10:55.536Z,21.00
2019-02-27T13:13:26.933Z,22.60
2019-02-27T13:15:58.112Z,19.00
2019-02-27T13:18:32.068Z,15.40
2019-02-27T13:21:02.830Z,29.60
2019-02-27T13:23:36.405Z,29.20
2019-02-27T13:26:07.908Z,24.80
2019-02-27T13:28:39.722Z,30.00
2019-02-27T13:31:13.683Z,25.60
2019-02-27T13:33:46.411Z,28.00
2019-02-27T13:36:18.324Z,31.00
2019-02-27T13:38:52.176Z,31.60
2019-02-27T13:41:23.834Z,32.60
2019-02-27T13:43:58.181Z,30.80
2019-02-27T13:46:29.203Z,29.20
2019-02-27T13:49:01.473Z,27.80
2019-02-27T13:51:33.891Z,44.00
2019-02-27T13:54:06.561Z,49.20
2019-02-27T13:56:38.625Z,59.60
2019-02-27T13:59:11.045Z,41.80
2019-02-27T14:01:44.797Z,44.00
2019-02-27T14:04:19.592Z,36.00
2019-02-27T14:06:50.364Z,34.60
2019-02-27T14:09:21.958Z,36.00
2019-02-27T14:11:58.416Z,32.00
2019-02-27T14:14:27.461Z,32.40
2019-02-27T14:16:59.107Z,36.60
2019-02-27T14:19:30.643Z,45.20
2019-02-27T14:22:02.159Z,51.60
2019-02-27T14:24:34.835Z,45.20
2019-02-27T14:27:12.068Z,40.20
2019-02-27T14:29:45.918Z,44.80
2019-02-27T14:32:17.363Z,44.20
2019-02-27T14:34:48.966Z,37.80
2019-02-27T14:37:20.425Z,44.20
2019-02-27T14:39:51.991Z,44.40
2019-02-27T14:42:24.745Z,55.40
2019-02-27T14:44:56.163Z,55.00
2019-02-27T14:47:27.516Z,55.20
2019-02-27T14:50:00.141Z,46.80
2019-02-27T14:52:33.182Z,45.60
2019-02-27T14:55:04.998Z,46.20
2019-02-27T14:57:36.603Z,41.80
2019-02-27T15:00:11.210Z,43.40
2019-02-27T15:02:44.610Z,43.20
2019-02-27T15:05:16.291Z,44.20
2019-02-27T15:07:47.937Z,40.80
2019-02-27T15:10:19.746Z,41.60
2019-02-27T15:12:54.972Z,41.20
2019-02-27T15:15:26.382Z,44.20
2019-02-27T15:17:58.077Z,44.20
2019-02-27T15:20:29.923Z,44.80
2019-02-27T15:23:01.740Z,45.00
2019-02-27T15:25:33.445Z,52.80
2019-02-27T15:28:05.006Z,60.00
2019-02-27T15:30:37.115Z,69.40
2019-02-27T15:33:08.790Z,67.40
2019-02-27T15:35:40.436Z,53.60
2019-02-27T15:38:12.443Z,55.40
2019-02-27T15:40:44.307Z,49.40
2019-02-27T15:43:17.470Z,53.80
2019-02-27T15:45:49.196Z,45.60
2019-02-27T15:48:20.832Z,47.20
2019-02-27T15:50:56.337Z,48.00
2019-02-27T15:53:26.202Z,54.80
2019-02-27T15:55:59.634Z,49.00
2019-02-27T15:58:32.923Z,54.00
2019-02-27T16:01:04.361Z,54.40
2019-02-27T16:03:36.198Z,57.20
2019-02-27T16:06:07.951Z,50.20
2019-02-27T16:08:39.540Z,50.20
2019-02-27T16:11:11.056Z,44.20
2019-02-27T16:13:42.913Z,45.40
2019-02-27T16:16:14.515Z,46.00
2019-02-27T16:18:45.982Z,50.40
2019-02-27T16:21:17.778Z,36.20
2019-02-27T16:23:50.651Z,47.00
2019-02-27T16:26:27.027Z,39.20
2019-02-27T16:28:56.203Z,36.60
2019-02-27T16:31:27.898Z,38.40
2019-02-27T16:33:59.557Z,44.40
2019-02-27T16:36:36.276Z,38.40
2019-02-27T16:39:07.426Z,37.80
2019-02-27T16:41:41.193Z,39.20
2019-02-27T16:44:12.699Z,38.20
2019-02-27T16:46:44.938Z,39.20
2019-02-27T16:49:16.782Z,39.00
2019-02-27T16:51:48.373Z,32.00
2019-02-27T16:54:19.715Z,42.40
2019-02-27T16:56:51.463Z,74.20
2019-02-27T16:59:23.640Z,123.50
2019-02-27T17:01:56.799Z,89.60
2019-02-27T17:04:28.178Z,47.40
2019-02-27T17:06:59.722Z,41.00
2019-02-27T17:09:31.610Z,38.20
2019-02-27T17:12:04.269Z,38.40
2019-02-27T17:14:39.272Z,34.00
2019-02-27T17:17:11.698Z,30.20
2019-02-27T17:19:43.351Z,30.40
2019-02-27T17:22:15.383Z,34.00
2019-02-27T17:24:47.193Z,32.60
2019-02-27T17:27:19.005Z,33.60
2019-02-27T17:29:50.540Z,33.80
2019-02-27T17:32:22.364Z,36.40
2019-02-27T17:34:54.059Z,33.80
2019-02-27T17:37:25.849Z,32.40
2019-02-27T17:39:59.295Z,39.00
2019-02-27T17:42:31.986Z,34.20
2019-02-27T17:45:03.714Z,34.40
2019-02-27T17:47:35.978Z,36.40
2019-02-27T17:50:07.897Z,37.20
2019-02-27T17:52:39.644Z,43.40
2019-02-27T17:55:11.600Z,42.40
2019-02-27T17:57:43.018Z,41.00
2019-02-27T18:00:21.605Z,43.00
2019-02-27T18:02:54.156Z,41.20
2019-02-27T18:05:27.416Z,34.20
2019-02-27T18:07:58.788Z,30.40
2019-02-27T18:10:30.237Z,41.20
2019-02-27T18:13:02.099Z,37.60
2019-02-27T18:15:33.475Z,37.20
2019-02-27T18:18:07.501Z,34.20
2019-02-27T18:24:38.146Z,38.80
2019-02-27T18:27:10.001Z,39.60
2019-02-27T18:29:43.730Z,43.00
2019-02-27T18:32:14.912Z,42.20
2019-02-27T18:34:47.357Z,41.40
2019-02-27T18:37:21.696Z,44.40
2019-02-27T18:39:53.456Z,42.20
2019-02-27T18:42:25.001Z,43.00
2019-02-27T18:44:57.658Z,45.40
2019-02-27T18:47:28.944Z,46.60
2019-02-27T18:50:00.372Z,43.60
2019-02-27T18:52:32.302Z,45.60
2019-02-27T18:55:04.065Z,45.20
2019-02-27T18:57:35.598Z,45.00
2019-02-27T19:00:09.336Z,44.80
2019-02-27T19:02:41.438Z,42.80
2019-02-27T19:05:13.418Z,43.00
2019-02-27T19:07:45.320Z,39.40
2019-02-27T19:10:18.557Z,41.80
2019-02-27T19:12:50.248Z,43.60
2019-02-27T19:15:22.352Z,45.00
2019-02-27T19:17:54.390Z,44.60
2019-02-27T19:20:28.438Z,46.20
2019-02-27T19:23:00.473Z,42.60
2019-02-27T19:25:34.767Z,43.20
2019-02-27T19:28:05.930Z,43.20
2019-02-27T19:30:38.688Z,45.60
2019-02-27T19:33:11.344Z,45.20
2019-02-27T19:35:42.999Z,42.60
2019-02-27T19:38:14.768Z,42.60
2019-02-27T19:40:46.293Z,42.60
2019-02-27T19:43:18.142Z,44.80
2019-02-27T19:45:51.277Z,41.80
2019-02-27T19:48:23.017Z,42.20
2019-02-27T19:50:54.747Z,42.60
2019-02-27T19:53:26.475Z,43.20
2019-02-27T19:56:00.730Z,45.20
2019-02-27T19:58:31.625Z,42.20
2019-02-27T20:01:08.733Z,41.00
2019-02-27T20:03:37.560Z,41.00
2019-02-27T20:06:09.397Z,43.80
2019-02-27T20:08:44.750Z,42.00
2019-02-27T20:11:14.648Z,42.40
2019-02-27T20:13:46.944Z,43.00
2019-02-27T20:16:20.701Z,42.20
2019-02-27T20:18:54.852Z,43.00
2019-02-27T20:21:25.048Z,42.60
2019-02-27T20:24:01.478Z,38.80
2019-02-27T20:26:33.939Z,43.00
2019-02-27T20:29:06.445Z,41.80
2019-02-27T20:31:37.899Z,39.60
2019-02-27T20:34:11.589Z,40.40
2019-02-27T20:36:42.956Z,41.00
2019-02-27T20:39:14.740Z,42.00
2019-02-27T20:41:46.489Z,41.60
2019-02-27T20:44:19.046Z,42.20
2019-02-27T20:46:50.929Z,40.80
2019-02-27T20:49:22.469Z,41.80
2019-02-27T20:51:54.167Z,38.60
2019-02-27T20:54:25.811Z,41.00
2019-02-27T20:56:57.511Z,41.00
2019-02-27T20:59:29.119Z,43.20
2019-02-27T21:02:00.684Z,41.60
2019-02-27T21:04:35.255Z,41.00
2019-02-27T21:07:06.018Z,42.20
2019-02-27T21:09:37.899Z,41.60
2019-02-27T21:12:09.551Z,42.20
2019-02-27T21:14:41.370Z,40.80
2019-02-27T21:17:12.917Z,41.80
2019-02-27T21:19:44.600Z,43.40
2019-02-27T21:22:16.943Z,42.60
2019-02-27T21:24:48.460Z,41.60
2019-02-27T21:27:21.139Z,42.80
2019-02-27T21:29:53.616Z,41.20
2019-02-27T21:32:25.497Z,43.80
2019-02-27T21:34:57.320Z,44.00
2019-02-27T21:37:29.133Z,41.00
2019-02-27T21:40:03.059Z,41.20
2019-02-27T21:42:34.272Z,43.00
2019-02-27T21:45:06.507Z,43.00
2019-02-27T21:47:38.856Z,44.20
2019-02-27T21:50:11.564Z,42.60
2019-02-27T21:52:43.195Z,43.00
2019-02-27T21:55:14.996Z,40.80
2019-02-27T21:57:46.968Z,44.80
2019-02-27T22:00:22.516Z,41.20
2019-02-27T22:02:55.267Z,46.00
2019-02-27T22:05:26.932Z,44.20
2019-02-27T22:07:58.652Z,47.00
2019-02-27T22:10:32.292Z,42.40
2019-02-27T22:13:09.302Z,47.60
2019-02-27T22:15:37.398Z,48.00
2019-02-27T22:18:11.779Z,45.00
2019-02-27T22:20:42.332Z,47.20
2019-02-27T22:23:14.987Z,49.00
2019-02-27T22:25:46.816Z,46.00
2019-02-27T22:28:19.952Z,47.20
2019-02-27T22:30:51.099Z,42.80
2019-02-27T22:33:23.174Z,60.20
2019-02-27T22:35:54.866Z,78.80
2019-02-27T22:38:26.843Z,74.40
2019-02-27T22:40:58.691Z,61.80
2019-02-27T22:43:30.278Z,54.80
2019-02-27T22:46:01.896Z,50.80
2019-02-27T22:48:33.304Z,48.80
2019-02-27T22:51:04.850Z,49.00
2019-02-27T22:53:36.446Z,48.40
2019-02-27T22:56:08.119Z,44.60
2019-02-27T22:58:39.497Z,49.00
2019-02-27T23:01:22.077Z,49.00
2019-02-27T23:04:02.746Z,44.20
2019-02-27T23:06:34.472Z,48.80
2019-02-27T23:09:09.133Z,45.60
2019-02-27T23:11:41.556Z,47.80
2019-02-27T23:14:13.348Z,41.20
2019-02-27T23:16:46.762Z,48.40
2019-02-27T23:19:18.053Z,46.80
2019-02-27T23:21:49.785Z,44.40
2019-02-27T23:24:21.686Z,45.40
2019-02-27T23:26:54.775Z,45.00
2019-02-27T23:29:26.654Z,49.00
2019-02-27T23:31:58.341Z,46.00
2019-02-27T23:34:29.959Z,46.80
2019-02-27T23:37:01.551Z,45.80
2019-02-27T23:39:33.342Z,48.60
2019-02-27T23:42:05.292Z,48.40
2019-02-27T23:44:38.782Z,48.00
2019-02-27T23:47:10.528Z,45.80
2019-02-27T23:49:42.436Z,47.60
2019-02-27T23:52:14.776Z,46.00
2019-02-27T23:54:46.363Z,46.00
2019-02-27T23:57:18.077Z,46.00
2019-02-27T23:59:49.626Z,46.40
